Time;durP1;ratioP1;P1;durP2;ratioP2;P2;SDS_P1;SDS_P2;PMS_P1;PMS_P2;Temp;Humidity;BMP_temperature;BMP_pressure;BME280_temperature;BME280_humidity;BME280_pressure;Samples;Min_cycle;Max_cycle;Signal;HPM_P1;HPM_P2
2023/02/10 00:01:33;;;;;;;24.42;8.60;;;-1.50;99.90;;;;;;4991564;28;20041;-71
2023/02/10 00:03:58;;;;;;;8.73;5.32;;;-1.50;99.90;;;;;;5001673;28;20026;-71
2023/02/10 00:06:26;;;;;;;11.05;5.97;;;-1.50;99.90;;;;;;4996676;28;20041;-72
2023/02/10 00:08:57;;;;;;;18.45;8.13;;;-1.60;99.90;;;;;;4977494;28;20105;-72
2023/02/10 00:11:56;;;;;;;9.52;6.45;;;-1.60;99.90;;;;;;4985013;28;20380;-72
2023/02/10 00:14:12;;;;;;;22.40;8.15;;;-1.60;99.90;;;;;;5000394;28;20034;-71
2023/02/10 00:16:37;;;;;;;13.75;6.90;;;-1.60;99.90;;;;;;4995648;28;20035;-72
2023/02/10 00:19:04;;;;;;;24.08;8.90;;;-1.60;99.90;;;;;;4997375;28;20097;-71
2023/02/10 00:21:30;;;;;;;13.82;7.45;;;-1.60;99.90;;;;;;4984766;28;20045;-72
2023/02/10 00:23:56;;;;;;;18.58;7.97;;;-1.60;99.90;;;;;;4999907;28;20042;-71
2023/02/10 00:26:22;;;;;;;17.13;7.80;;;-1.60;99.90;;;;;;4996227;28;20033;-71
2023/02/10 00:28:47;;;;;;;14.18;6.47;;;-1.60;99.90;;;;;;4986859;28;20026;-71
2023/02/10 00:31:18;;;;;;;18.52;8.93;;;-1.70;99.90;;;;;;5005503;28;20060;-71
2023/02/10 00:33:45;;;;;;;21.75;9.70;;;-1.70;99.90;;;;;;5001460;28;20042;-72
2023/02/10 00:36:13;;;;;;;14.20;6.38;;;-1.70;99.90;;;;;;4988164;28;20037;-71
2023/02/10 00:38:40;;;;;;;22.70;7.68;;;-1.70;99.90;;;;;;4986855;28;20033;-71
2023/02/10 00:41:12;;;;;;;14.40;6.18;;;-1.70;99.90;;;;;;4985948;28;20033;-72
2023/02/10 00:43:39;;;;;;;16.30;7.45;;;-1.80;99.90;;;;;;4984203;28;20100;-71
2023/02/10 00:46:06;;;;;;;15.32;7.53;;;-1.70;99.90;;;;;;4986387;28;20036;-72
2023/02/10 00:48:32;;;;;;;17.98;8.90;;;-1.80;99.90;;;;;;4995895;28;20091;-71
2023/02/10 00:50:58;;;;;;;14.05;7.63;;;-1.80;99.90;;;;;;4998986;28;20089;-71
2023/02/10 00:53:24;;;;;;;18.90;7.07;;;-1.80;99.90;;;;;;5001664;28;20501;-72
2023/02/10 00:55:50;;;;;;;19.23;9.45;;;-1.80;99.90;;;;;;4997273;28;20512;-72
2023/02/10 00:58:16;;;;;;;23.63;9.82;;;-1.80;99.90;;;;;;4986079;28;20030;-72
2023/02/10 01:00:42;;;;;;;19.02;8.25;;;-1.80;99.90;;;;;;4999944;28;20511;-72
2023/02/10 01:03:08;;;;;;;18.23;9.10;;;-1.80;99.90;;;;;;5003067;28;20117;-72
2023/02/10 01:05:34;;;;;;;9.98;5.60;;;-1.80;99.90;;;;;;5010267;28;20049;-72
2023/02/10 01:08:00;;;;;;;12.82;6.88;;;-1.80;99.90;;;;;;5004912;28;20029;-72
2023/02/10 01:10:26;;;;;;;13.48;7.28;;;-1.80;99.90;;;;;;5007133;28;20474;-72
2023/02/10 01:12:52;;;;;;;17.13;7.93;;;-1.80;99.90;;;;;;5001483;28;20555;-72
2023/02/10 01:15:17;;;;;;;19.52;7.55;;;-1.70;99.90;;;;;;5004116;28;20030;-72
2023/02/10 01:17:43;;;;;;;9.15;6.50;;;-1.80;99.90;;;;;;4993470;28;20087;-72
2023/02/10 01:20:09;;;;;;;10.20;6.97;;;-1.80;99.90;;;;;;4996631;28;20116;-72
2023/02/10 01:22:36;;;;;;;12.88;7.97;;;-1.80;99.90;;;;;;4983426;28;20038;-72
2023/02/10 01:25:02;;;;;;;18.63;8.63;;;-1.70;99.90;;;;;;4999844;28;20422;-73
2023/02/10 01:27:28;;;;;;;18.08;7.80;;;-1.80;99.90;;;;;;4987089;28;20063;-72
2023/02/10 01:29:54;;;;;;;15.52;8.43;;;-1.70;99.90;;;;;;4987297;28;20038;-72
2023/02/10 01:32:20;;;;;;;14.40;7.60;;;-1.70;99.90;;;;;;4995239;28;20033;-72
2023/02/10 01:34:46;;;;;;;16.73;8.63;;;-1.70;99.90;;;;;;4994112;28;20429;-72
2023/02/10 01:37:12;;;;;;;30.88;6.05;;;-1.80;99.90;;;;;;4980241;28;20042;-72
2023/02/10 01:39:37;;;;;;;18.02;6.97;;;-1.80;99.90;;;;;;4980888;28;20030;-72
2023/02/10 01:42:03;;;;;;;20.23;8.80;;;-1.80;99.90;;;;;;4989259;28;20513;-72
2023/02/10 01:44:29;;;;;;;20.35;6.00;;;-1.80;99.90;;;;;;5003772;28;20038;-72
2023/02/10 01:46:55;;;;;;;17.15;7.70;;;-1.80;99.90;;;;;;5000434;28;20397;-73
2023/02/10 01:49:27;;;;;;;22.17;8.27;;;-1.70;99.90;;;;;;4986738;28;20030;-72
2023/02/10 01:52:00;;;;;;;18.90;10.13;;;-1.70;99.90;;;;;;4990502;28;20488;-71
2023/02/10 01:54:38;;;;;;;18.23;8.90;;;-1.70;99.90;;;;;;4994743;28;20034;-71
2023/02/10 01:57:05;;;;;;;21.17;7.63;;;-1.70;99.90;;;;;;4998564;28;20035;-72
2023/02/10 01:59:34;;;;;;;22.88;8.07;;;-1.80;99.90;;;;;;4999279;28;20037;-71
2023/02/10 02:02:06;;;;;;;20.67;10.23;;;-1.70;99.90;;;;;;4991739;28;20037;-72
2023/02/10 02:04:52;;;;;;;15.40;6.57;;;-1.80;99.90;;;;;;4984903;28;20035;-72
2023/02/10 02:07:24;;;;;;;19.75;9.38;;;-1.80;99.90;;;;;;4965117;28;20081;-72
2023/02/10 02:09:52;;;;;;;20.67;7.43;;;-1.80;99.90;;;;;;4981639;28;20501;-71
2023/02/10 02:12:28;;;;;;;14.48;7.47;;;-1.80;99.90;;;;;;4993036;28;20027;-71
2023/02/10 02:15:24;;;;;;;18.50;5.97;;;-1.90;99.90;;;;;;4976089;28;20121;-71
2023/02/10 02:17:50;;;;;;;12.75;7.53;;;-1.90;99.90;;;;;;4995319;28;20038;-72
2023/02/10 02:20:49;;;;;;;16.17;8.05;;;-1.90;99.90;;;;;;4996711;28;20059;-72
2023/02/10 02:24:12;;;;;;;16.85;7.90;;;-1.90;99.90;;;;;;5001640;28;20042;-71
2023/02/10 02:31:14;;;;;;;16.08;6.22;;;-1.90;99.90;;;;;;5011326;28;20041;-71
2023/02/10 02:34:05;;;;;;;24.00;7.03;;;-1.90;99.90;;;;;;4997112;28;20065;-71
2023/02/10 02:36:49;;;;;;;12.75;6.63;;;-1.90;99.90;;;;;;4972494;28;20062;-72
2023/02/10 02:39:14;;;;;;;14.20;7.35;;;-1.90;99.90;;;;;;4985181;28;20034;-72
2023/02/10 02:41:40;;;;;;;26.40;8.75;;;-1.80;99.90;;;;;;4979541;28;20096;-72
2023/02/10 02:44:07;;;;;;;16.45;7.93;;;-1.80;99.90;;;;;;4991697;28;20038;-72
2023/02/10 02:47:07;;;;;;;25.55;8.73;;;-1.80;99.90;;;;;;5003900;28;20037;-72
2023/02/10 02:50:00;;;;;;;18.40;8.07;;;-1.80;99.90;;;;;;4980159;28;20060;-71
2023/02/10 02:53:02;;;;;;;13.73;7.40;;;-1.80;99.90;;;;;;4980095;28;20029;-71
2023/02/10 02:56:00;;;;;;;10.13;5.78;;;-1.80;99.90;;;;;;4991349;28;20037;-71
2023/02/10 02:59:04;;;;;;;16.17;7.90;;;-1.80;99.90;;;;;;4972144;28;20042;-71
2023/02/10 03:01:36;;;;;;;14.65;6.47;;;-1.80;99.90;;;;;;4966768;28;20042;-72
2023/02/10 03:04:03;;;;;;;22.20;9.80;;;-1.90;99.90;;;;;;4981349;28;20045;-72
2023/02/10 03:06:29;;;;;;;20.38;9.30;;;-1.90;99.90;;;;;;4986487;28;20030;-72
2023/02/10 03:08:55;;;;;;;15.45;9.05;;;-1.90;99.90;;;;;;4999307;28;20100;-72
2023/02/10 03:11:21;;;;;;;19.05;7.57;;;-1.90;99.90;;;;;;5010991;28;20044;-72
2023/02/10 03:13:47;;;;;;;16.52;7.55;;;-2.00;99.90;;;;;;4964548;28;20031;-72
2023/02/10 03:16:13;;;;;;;14.73;9.93;;;-1.90;99.90;;;;;;4979353;28;20498;-72
2023/02/10 03:18:39;;;;;;;19.02;8.55;;;-2.00;99.90;;;;;;4962172;28;20053;-72
2023/02/10 03:21:05;;;;;;;19.80;8.73;;;-2.00;99.90;;;;;;4981797;28;20030;-72
2023/02/10 03:23:31;;;;;;;16.83;7.43;;;-2.00;99.90;;;;;;5003295;28;20042;-72
2023/02/10 03:26:00;;;;;;;10.73;6.20;;;-2.00;99.90;;;;;;4964345;28;20101;-72
2023/02/10 03:28:27;;;;;;;15.48;8.65;;;-2.10;99.90;;;;;;5002387;28;20034;-72
2023/02/10 03:30:55;;;;;;;20.58;8.52;;;-2.10;99.90;;;;;;5002726;28;20049;-72
2023/02/10 03:33:21;;;;;;;15.30;6.63;;;-2.10;99.90;;;;;;4994458;28;20052;-72
2023/02/10 03:35:47;;;;;;;18.33;9.18;;;-2.20;99.90;;;;;;5004101;28;20405;-72
2023/02/10 03:38:14;;;;;;;18.48;9.80;;;-2.20;99.90;;;;;;4977891;28;20101;-72
2023/02/10 03:40:39;;;;;;;12.82;7.68;;;-2.30;99.90;;;;;;4965205;28;20035;-72
2023/02/10 03:43:05;;;;;;;19.23;7.93;;;-2.30;99.90;;;;;;4992262;28;20371;-72
2023/02/10 03:45:31;;;;;;;12.73;6.78;;;-2.40;99.90;;;;;;4997525;28;20737;-72
2023/02/10 03:47:58;;;;;;;13.20;8.60;;;-2.30;99.90;;;;;;5007486;28;20040;-72
2023/02/10 03:50:25;;;;;;;11.93;6.45;;;-2.30;99.90;;;;;;4999822;28;20022;-72
2023/02/10 03:52:51;;;;;;;20.35;6.85;;;-2.30;99.90;;;;;;4989043;28;20025;-72
2023/02/10 03:55:19;;;;;;;33.28;9.23;;;-2.20;99.90;;;;;;4976299;28;20025;-72
2023/02/10 03:57:45;;;;;;;14.70;7.60;;;-2.20;99.90;;;;;;5004142;28;20034;-72
2023/02/10 04:00:12;;;;;;;17.52;8.10;;;-2.20;99.90;;;;;;4995364;28;20040;-72
2023/02/10 04:02:38;;;;;;;13.13;6.85;;;-2.20;99.90;;;;;;4996538;28;20109;-72
2023/02/10 04:05:05;;;;;;;21.83;8.15;;;-2.20;99.90;;;;;;5011771;28;20561;-72
2023/02/10 04:07:30;;;;;;;16.65;7.38;;;-2.20;99.90;;;;;;5004081;28;20041;-72
2023/02/10 04:09:56;;;;;;;13.98;6.93;;;-2.20;99.90;;;;;;5000541;28;20141;-71
2023/02/10 04:12:22;;;;;;;17.73;8.52;;;-2.20;99.90;;;;;;4998959;28;20036;-72
2023/02/10 04:14:48;;;;;;;11.20;5.60;;;-2.10;99.90;;;;;;4997561;28;20034;-72
2023/02/10 04:17:13;;;;;;;25.27;8.15;;;-2.10;99.90;;;;;;5001901;28;20553;-72
2023/02/10 04:19:39;;;;;;;17.50;9.05;;;-2.20;99.90;;;;;;4986929;28;20033;-72
2023/02/10 04:22:05;;;;;;;15.25;9.20;;;-2.20;99.90;;;;;;4979423;28;20038;-72
2023/02/10 04:24:31;;;;;;;10.30;6.43;;;-2.20;99.90;;;;;;4987837;28;20045;-72
2023/02/10 04:26:56;;;;;;;14.05;7.28;;;-2.30;99.90;;;;;;4983749;28;20082;-72
2023/02/10 04:29:22;;;;;;;12.40;6.68;;;-2.20;99.90;;;;;;4984732;28;20482;-71
2023/02/10 04:31:48;;;;;;;20.00;7.22;;;-2.20;99.90;;;;;;4989297;28;20061;-72
2023/02/10 04:34:14;;;;;;;16.85;7.25;;;-2.20;99.90;;;;;;4992231;28;20034;-72
2023/02/10 04:36:40;;;;;;;12.07;6.30;;;-2.10;99.90;;;;;;4984819;28;20042;-72
2023/02/10 04:39:06;;;;;;;24.67;8.32;;;-2.00;99.90;;;;;;4984047;28;20057;-72
2023/02/10 04:41:32;;;;;;;20.40;8.82;;;-2.00;99.90;;;;;;4971791;28;20038;-72
2023/02/10 04:43:57;;;;;;;17.27;9.77;;;-2.00;99.90;;;;;;4983327;28;20026;-72
2023/02/10 04:46:23;;;;;;;26.30;9.70;;;-2.10;99.90;;;;;;4984150;28;20080;-72
2023/02/10 04:48:49;;;;;;;20.60;7.95;;;-2.10;99.90;;;;;;4998288;28;20026;-73
2023/02/10 04:51:15;;;;;;;14.43;7.75;;;-2.10;99.90;;;;;;5019451;23;20052;-72
2023/02/10 04:53:43;;;;;;;21.70;9.20;;;-2.20;99.90;;;;;;5035462;28;20431;-72
2023/02/10 04:56:09;;;;;;;21.17;8.88;;;-2.20;99.90;;;;;;5036179;28;20060;-72
2023/02/10 04:58:35;;;;;;;14.70;7.43;;;-2.20;99.90;;;;;;5046639;28;20076;-72
2023/02/10 05:01:01;;;;;;;19.63;8.48;;;-2.20;99.90;;;;;;5030457;28;20553;-72
2023/02/10 05:03:28;;;;;;;18.88;9.57;;;-2.30;99.90;;;;;;5024923;28;20048;-72
2023/02/10 05:05:54;;;;;;;23.55;8.15;;;-2.30;99.90;;;;;;5028689;28;20072;-72
2023/02/10 05:08:22;;;;;;;21.23;9.40;;;-2.30;99.90;;;;;;5015067;28;20092;-72
2023/02/10 05:10:50;;;;;;;18.13;8.18;;;-2.30;99.90;;;;;;5012240;28;20481;-72
2023/02/10 05:13:15;;;;;;;15.65;7.80;;;-2.40;99.90;;;;;;5006293;28;20417;-72
2023/02/10 05:15:41;;;;;;;15.18;7.82;;;-2.40;99.90;;;;;;5025028;28;20040;-71
2023/02/10 05:18:07;;;;;;;25.55;9.95;;;-2.40;99.90;;;;;;5023901;28;20026;-72
2023/02/10 05:20:33;;;;;;;11.43;8.00;;;-2.40;99.90;;;;;;5028364;28;20044;-72
2023/02/10 05:22:58;;;;;;;21.10;6.75;;;-2.40;99.90;;;;;;5023983;28;20049;-71
2023/02/10 05:25:24;;;;;;;13.13;7.30;;;-2.40;99.90;;;;;;5023506;28;20033;-71
2023/02/10 05:27:50;;;;;;;16.85;9.20;;;-2.30;99.90;;;;;;5023454;28;20091;-71
2023/02/10 05:30:16;;;;;;;14.05;7.28;;;-2.30;99.90;;;;;;5028111;28;20051;-72
2023/02/10 05:32:42;;;;;;;18.17;8.13;;;-2.30;99.90;;;;;;5023561;28;20049;-72
2023/02/10 05:35:09;;;;;;;12.65;8.38;;;-2.30;99.90;;;;;;5028102;28;20053;-72
2023/02/10 05:37:35;;;;;;;16.27;8.60;;;-2.20;99.90;;;;;;5023479;28;20033;-72
2023/02/10 05:40:01;;;;;;;24.67;8.23;;;-2.10;99.90;;;;;;5027855;28;20052;-71
2023/02/10 05:42:27;;;;;;;21.23;7.72;;;-2.00;99.90;;;;;;5006073;28;20424;-71
2023/02/10 05:44:53;;;;;;;21.13;8.80;;;-2.00;99.90;;;;;;5028127;28;20029;-71
2023/02/10 05:47:18;;;;;;;18.25;8.45;;;-2.00;99.90;;;;;;5023050;28;20038;-72
2023/02/10 05:49:44;;;;;;;13.85;8.90;;;-2.00;99.90;;;;;;5012283;28;20771;-71
2023/02/10 05:52:10;;;;;;;16.02;7.63;;;-1.90;99.90;;;;;;5002198;28;20041;-71
2023/02/10 05:54:36;;;;;;;24.80;8.90;;;-1.90;99.90;;;;;;5027258;28;20112;-72
2023/02/10 05:57:02;;;;;;;32.63;8.88;;;-1.90;99.90;;;;;;5018927;28;20036;-71
2023/02/10 05:59:27;;;;;;;14.88;7.68;;;-2.00;99.90;;;;;;5013560;28;20396;-72
2023/02/10 06:01:53;;;;;;;13.77;8.07;;;-2.00;99.90;;;;;;5020689;28;20037;-72
2023/02/10 06:04:19;;;;;;;25.80;11.15;;;-2.00;99.90;;;;;;4991624;28;20042;-72
2023/02/10 06:06:45;;;;;;;26.55;10.55;;;-2.00;99.90;;;;;;5014706;28;20069;-72
2023/02/10 06:09:10;;;;;;;14.63;7.72;;;-2.00;99.90;;;;;;5024625;28;20665;-71
2023/02/10 06:11:36;;;;;;;24.08;10.32;;;-2.00;99.90;;;;;;5014621;28;20053;-72
2023/02/10 06:14:02;;;;;;;14.10;7.25;;;-2.00;99.90;;;;;;5028231;28;20503;-71
2023/02/10 06:16:28;;;;;;;16.55;7.32;;;-1.90;99.90;;;;;;5020186;28;20392;-72
2023/02/10 06:18:54;;;;;;;13.32;7.28;;;-1.90;99.90;;;;;;5027322;28;20111;-71
2023/02/10 06:21:22;;;;;;;10.90;6.60;;;-1.90;99.90;;;;;;5006555;28;20038;-72
2023/02/10 06:23:49;;;;;;;23.58;10.38;;;-1.90;99.90;;;;;;5009133;28;20468;-72
2023/02/10 06:26:15;;;;;;;22.88;8.48;;;-1.90;99.90;;;;;;5019992;28;20465;-72
2023/02/10 06:28:41;;;;;;;20.15;9.10;;;-1.90;99.90;;;;;;5025535;28;20029;-72
2023/02/10 06:31:10;;;;;;;28.90;9.35;;;-1.90;99.90;;;;;;5025514;28;20059;-71
2023/02/10 06:33:36;;;;;;;18.10;7.93;;;-1.90;99.90;;;;;;5007337;28;20041;-72
2023/02/10 06:36:05;;;;;;;15.63;9.50;;;-1.90;99.90;;;;;;5023347;28;20033;-71
2023/02/10 06:38:32;;;;;;;16.42;9.27;;;-1.90;99.90;;;;;;5006936;28;20033;-71
2023/02/10 06:40:58;;;;;;;23.58;8.65;;;-1.90;99.90;;;;;;5010344;28;20026;-71
2023/02/10 06:43:24;;;;;;;15.45;7.10;;;-2.00;99.90;;;;;;5022769;28;20128;-71
2023/02/10 06:45:50;;;;;;;12.23;7.75;;;-1.90;99.90;;;;;;5025281;28;20037;-71
2023/02/10 06:48:15;;;;;;;14.27;8.52;;;-1.90;99.90;;;;;;5021395;28;20036;-72
2023/02/10 06:50:41;;;;;;;27.52;7.82;;;-1.90;99.90;;;;;;5030636;28;20456;-72
2023/02/10 06:53:07;;;;;;;20.83;9.32;;;-1.90;99.90;;;;;;5019240;28;20461;-72
2023/02/10 06:55:32;;;;;;;25.27;10.05;;;-1.90;99.90;;;;;;5012556;28;20088;-72
2023/02/10 06:57:59;;;;;;;13.45;7.35;;;-1.90;99.90;;;;;;5018333;28;20037;-71
2023/02/10 07:00:26;;;;;;;17.73;6.97;;;-1.90;99.90;;;;;;5005118;28;20041;-71
2023/02/10 07:02:52;;;;;;;16.40;9.00;;;-1.90;99.90;;;;;;5012529;28;20037;-72
2023/02/10 07:05:18;;;;;;;20.55;10.50;;;-1.90;99.90;;;;;;5022061;28;20032;-71
2023/02/10 07:07:44;;;;;;;19.70;7.18;;;-1.90;99.90;;;;;;5020853;28;20157;-71
2023/02/10 07:10:11;;;;;;;13.32;6.97;;;-1.80;99.90;;;;;;5022098;28;20088;-71
2023/02/10 07:12:37;;;;;;;23.23;9.65;;;-1.80;99.90;;;;;;5003632;28;20040;-71
2023/02/10 07:15:04;;;;;;;15.13;8.50;;;-1.80;99.90;;;;;;5004362;28;20033;-72
2023/02/10 07:17:30;;;;;;;14.10;8.82;;;-1.80;99.90;;;;;;5020589;28;20072;-72
2023/02/10 07:19:56;;;;;;;14.77;8.20;;;-1.80;99.90;;;;;;5022074;28;20083;-72
2023/02/10 07:22:22;;;;;;;17.02;8.05;;;-1.80;99.90;;;;;;5020948;28;20422;-72
2023/02/10 07:24:48;;;;;;;16.50;8.98;;;-1.80;99.90;;;;;;5016445;28;20053;-72
2023/02/10 07:27:14;;;;;;;15.90;8.70;;;-1.80;99.90;;;;;;5012377;28;20034;-72
2023/02/10 07:29:39;;;;;;;25.52;9.50;;;-1.80;99.90;;;;;;5022201;28;20513;-71
2023/02/10 07:32:05;;;;;;;36.95;8.77;;;-1.80;99.90;;;;;;5022427;28;20042;-71
2023/02/10 07:34:33;;;;;;;16.98;7.05;;;-1.80;99.90;;;;;;5025838;28;20060;-72
2023/02/10 07:37:00;;;;;;;14.82;8.05;;;-1.80;99.90;;;;;;5007763;28;20425;-72
2023/02/10 07:39:26;;;;;;;19.98;9.10;;;-1.80;99.90;;;;;;5006378;28;20385;-72
2023/02/10 07:41:52;;;;;;;13.40;8.23;;;-1.80;99.90;;;;;;5013461;28;20403;-72
2023/02/10 07:44:22;;;;;;;13.98;9.65;;;-1.80;99.90;;;;;;5025470;28;20109;-72
2023/02/10 07:46:48;;;;;;;19.05;8.98;;;-1.80;99.90;;;;;;5007947;28;20521;-71
2023/02/10 07:49:14;;;;;;;27.27;8.57;;;-1.70;99.90;;;;;;5024616;28;20072;-72
2023/02/10 07:51:39;;;;;;;32.88;11.52;;;-1.60;99.90;;;;;;5008910;28;20505;-72
2023/02/10 07:54:05;;;;;;;16.05;9.55;;;-1.50;99.90;;;;;;5023660;28;20036;-72
2023/02/10 07:56:32;;;;;;;25.05;9.02;;;-1.40;99.90;;;;;;5013819;28;20158;-72
2023/02/10 07:58:58;;;;;;;19.58;8.73;;;-1.40;99.90;;;;;;5012625;28;20040;-71
2023/02/10 08:01:24;;;;;;;30.52;9.20;;;-1.30;99.90;;;;;;4996508;28;20034;-72
2023/02/10 08:03:50;;;;;;;24.40;10.02;;;-1.30;99.90;;;;;;5011931;28;20428;-72
2023/02/10 08:06:21;;;;;;;17.35;9.95;;;-1.30;99.90;;;;;;4996376;28;20029;-72
2023/02/10 08:08:48;;;;;;;17.23;8.90;;;-1.30;99.90;;;;;;4997871;28;20030;-72
2023/02/10 08:11:14;;;;;;;19.75;10.27;;;-1.20;99.90;;;;;;5013581;28;20028;-72
2023/02/10 08:13:40;;;;;;;22.67;8.63;;;-1.10;99.90;;;;;;5025133;28;20032;-71
2023/02/10 08:16:07;;;;;;;23.63;10.02;;;-1.10;99.90;;;;;;4997273;28;20034;-71
2023/02/10 08:18:38;;;;;;;33.30;15.02;;;-1.10;99.90;;;;;;5020761;28;20059;-71
2023/02/10 08:21:04;;;;;;;25.33;10.32;;;-1.00;99.90;;;;;;5028583;28;20040;-70
2023/02/10 08:23:30;;;;;;;21.10;9.65;;;-1.00;99.90;;;;;;5020234;28;20041;-71
2023/02/10 08:25:56;;;;;;;13.95;7.88;;;-1.00;99.90;;;;;;4983901;28;20038;-70
2023/02/10 08:28:22;;;;;;;26.45;10.20;;;-1.00;99.90;;;;;;5021817;28;20076;-71
2023/02/10 08:30:48;;;;;;;16.02;9.60;;;-1.00;99.90;;;;;;5011484;28;20033;-71
2023/02/10 08:33:14;;;;;;;25.63;9.38;;;-0.90;99.90;;;;;;5020696;28;20493;-71
2023/02/10 08:35:40;;;;;;;30.60;10.38;;;-0.90;99.90;;;;;;5027608;28;20030;-71
2023/02/10 08:38:08;;;;;;;22.00;8.43;;;-0.80;99.90;;;;;;5022040;28;20045;-71
2023/02/10 08:40:35;;;;;;;17.98;9.80;;;-0.60;99.90;;;;;;5009700;28;20037;-71
2023/02/10 08:43:02;;;;;;;21.60;10.68;;;-0.70;99.90;;;;;;5022488;28;20489;-71
2023/02/10 08:45:28;;;;;;;25.75;8.95;;;-0.60;99.90;;;;;;5025643;28;20041;-71
2023/02/10 08:47:53;;;;;;;24.73;9.73;;;-0.50;99.90;;;;;;5023495;28;20040;-71
2023/02/10 08:50:19;;;;;;;14.93;9.23;;;-0.30;99.90;;;;;;4999075;28;20029;-71
2023/02/10 08:52:45;;;;;;;26.92;11.25;;;-0.20;99.90;;;;;;5023417;28;20404;-71
2023/02/10 08:55:11;;;;;;;14.55;7.90;;;-0.10;99.90;;;;;;5015794;28;20022;-71
2023/02/10 08:57:37;;;;;;;18.95;9.77;;;-0.10;99.90;;;;;;5018122;28;20038;-71
2023/02/10 09:00:08;;;;;;;14.32;8.25;;;0.00;99.90;;;;;;5024588;28;20029;-71
2023/02/10 09:02:33;;;;;;;24.77;10.30;;;0.10;99.90;;;;;;5023310;28;20037;-71
2023/02/10 09:04:59;;;;;;;23.40;10.88;;;0.30;99.90;;;;;;5024319;28;20033;-71
2023/02/10 09:07:25;;;;;;;30.95;12.95;;;0.40;99.90;;;;;;5023182;28;20029;-71
2023/02/10 09:09:50;;;;;;;24.23;10.85;;;0.40;99.90;;;;;;5006714;28;20033;-70
2023/02/10 09:12:16;;;;;;;31.38;11.07;;;0.60;99.90;;;;;;5005900;28;20044;-71
2023/02/10 09:14:42;;;;;;;29.27;10.52;;;0.70;99.90;;;;;;5024109;28;20428;-70
2023/02/10 09:17:08;;;;;;;19.52;8.90;;;0.90;99.90;;;;;;5022993;28;20038;-71
2023/02/10 09:19:35;;;;;;;34.63;11.82;;;0.70;99.90;;;;;;5024217;28;20072;-71
2023/02/10 09:22:06;;;;;;;23.48;12.13;;;0.80;99.90;;;;;;5005486;28;20038;-71
2023/02/10 09:24:32;;;;;;;17.83;9.00;;;1.00;99.90;;;;;;5003600;28;20476;-71
2023/02/10 09:26:58;;;;;;;26.00;13.18;;;0.80;99.90;;;;;;5012195;28;20029;-72
2023/02/10 09:29:24;;;;;;;22.40;10.18;;;0.80;99.90;;;;;;5006568;28;20026;-71
2023/02/10 09:31:51;;;;;;;36.00;13.63;;;0.70;99.90;;;;;;5005611;28;20034;-71
2023/02/10 09:34:16;;;;;;;16.70;9.27;;;0.90;99.90;;;;;;5022119;28;20025;-72
2023/02/10 09:36:42;;;;;;;32.28;10.27;;;0.80;99.90;;;;;;5024369;28;20509;-72
2023/02/10 09:39:08;;;;;;;19.30;8.32;;;1.00;99.90;;;;;;5021136;28;20038;-71
2023/02/10 09:41:34;;;;;;;27.00;10.52;;;1.10;99.90;;;;;;5025525;28;20045;-71
2023/02/10 09:44:28;;;;;;;17.98;9.65;;;1.10;99.90;;;;;;5021125;28;20033;-71
2023/02/10 09:47:53;;;;;;;23.15;11.18;;;1.10;99.90;;;;;;5022583;28;20034;-72
2023/02/10 09:50:49;;;;;;;30.20;9.70;;;1.00;99.90;;;;;;5020098;28;20044;-71
2023/02/10 09:53:36;;;;;;;14.82;9.00;;;1.10;99.90;;;;;;5019994;28;20030;-71
2023/02/10 09:56:04;;;;;;;25.42;10.15;;;1.20;99.90;;;;;;5012878;28;20028;-71
2023/02/10 09:59:01;;;;;;;23.38;10.70;;;1.30;99.90;;;;;;5019089;28;20418;-71
2023/02/10 10:02:20;;;;;;;20.40;9.85;;;1.40;99.90;;;;;;4999457;28;20037;-72
2023/02/10 10:04:46;;;;;;;35.80;12.10;;;1.40;99.90;;;;;;4946728;29;20047;-73
2023/02/10 10:08:29;;;;;;;29.20;10.52;;;1.50;99.90;;;;;;4941304;29;20522;-72
2023/02/10 10:11:54;;;;;;;23.35;11.05;;;1.80;99.90;;;;;;5000310;28;20180;-70
2023/02/10 10:14:47;;;;;;;20.98;9.00;;;1.80;99.90;;;;;;4931114;29;20076;-70
2023/02/10 10:18:02;;;;;;;25.35;12.75;;;1.70;99.90;;;;;;4915647;29;20043;-71
2023/02/10 10:21:17;;;;;;;24.45;11.15;;;1.90;99.90;;;;;;4931439;29;20111;-71
2023/02/10 10:24:30;;;;;;;23.58;10.93;;;2.00;99.90;;;;;;4914039;29;20169;-71
2023/02/10 10:27:22;;;;;;;21.63;10.52;;;1.90;99.90;;;;;;4931165;29;20127;-71
2023/02/10 10:30:24;;;;;;;41.90;13.32;;;1.90;99.90;;;;;;4916304;29;20055;-71
2023/02/10 10:33:14;;;;;;;;;;;2.00;99.90;;;;;;4901955;29;20047;-71
2023/02/10 10:35:51;;;;;;;20.58;8.57;;;2.10;99.90;;;;;;4926141;29;19917;-71
2023/02/10 10:38:40;;;;;;;25.25;12.18;;;2.10;99.90;;;;;;4916543;29;20087;-71
2023/02/10 10:41:25;;;;;;;22.27;11.30;;;2.10;99.90;;;;;;4930964;29;20054;-71
2023/02/10 10:44:03;;;;;;;23.27;9.65;;;2.20;99.90;;;;;;4927227;29;20097;-71
2023/02/10 10:47:24;;;;;;;23.10;12.35;;;2.30;99.90;;;;;;4917260;29;20595;-71
2023/02/10 10:49:59;;;;;;;21.70;10.27;;;2.40;99.90;;;;;;4964264;23;20979;-70
2023/02/10 10:52:53;;;;;;;35.45;12.02;;;2.40;99.90;;;;;;4985460;28;20030;-71
2023/02/10 10:56:02;;;;;;;26.70;10.18;;;2.50;99.90;;;;;;4914131;29;20515;-71
2023/02/10 11:01:59;;;;;;;28.17;9.80;;;2.60;99.90;;;;;;4904106;29;20111;-71
2023/02/10 11:04:37;;;;;;;39.22;11.90;;;2.80;99.90;;;;;;4907652;29;20496;-71
2023/02/10 11:07:31;;;;;;;24.42;11.38;;;2.80;99.90;;;;;;4882863;29;20047;-71
2023/02/10 11:10:01;;;;;;;19.40;9.93;;;2.90;99.90;;;;;;4889023;29;20107;-71
2023/02/10 11:12:48;;;;;;;23.33;8.90;;;3.00;99.90;;;;;;4890383;29;20551;-71
2023/02/10 11:17:00;;;;;;;22.75;11.32;;;3.20;99.90;;;;;;4880180;29;20048;-71
2023/02/10 11:23:26;;;;;;;24.27;9.93;;;3.50;99.90;;;;;;4844436;29;19995;-72
2023/02/10 11:26:24;;;;;;;26.30;11.20;;;3.50;99.90;;;;;;4850622;29;20053;-71
2023/02/10 11:28:51;;;;;;;20.20;9.52;;;3.60;99.90;;;;;;4856981;29;20052;-72
2023/02/10 11:31:34;;;;;;;17.45;9.73;;;3.50;99.90;;;;;;4874133;29;20093;-72
2023/02/10 11:34:55;;;;;;;19.92;9.48;;;3.50;99.90;;;;;;4919990;29;20059;-72
2023/02/10 11:37:56;;;;;;;20.17;8.55;;;3.50;99.90;;;;;;4929983;29;20043;-72
2023/02/10 11:41:15;;;;;;;32.97;11.88;;;3.40;99.90;;;;;;4906995;29;20035;-71
2023/02/10 11:43:49;;;;;;;26.33;11.15;;;3.50;99.90;;;;;;4912320;29;20378;-70
2023/02/10 11:50:29;;;;;;;16.27;8.77;;;4.60;99.90;;;;;;4914887;29;20193;-70
2023/02/10 11:53:46;;;;;;;26.95;11.10;;;6.40;99.90;;;;;;4934209;28;20043;-70
2023/02/10 12:00:49;;;;;;;24.55;9.85;;;8.10;96.50;;;;;;4978900;28;20053;-71
2023/02/10 12:04:17;;;;;;;22.20;10.45;;;7.80;94.90;;;;;;4955688;28;20678;-71
2023/02/10 12:08:06;;;;;;;20.55;9.75;;;9.00;94.50;;;;;;4972986;28;20105;-70
2023/02/10 12:11:09;;;;;;;29.83;10.77;;;8.90;94.20;;;;;;4925692;29;20043;-70
2023/02/10 12:18:17;;;;;;;27.33;10.13;;;8.90;94.10;;;;;;4917265;28;20202;-70
2023/02/10 12:21:54;;;;;;;21.95;10.75;;;7.80;95.30;;;;;;4928091;29;20062;-70
2023/02/10 12:25:42;;;;;;;24.65;10.80;;;8.60;94.50;;;;;;4943276;28;20100;-70
2023/02/10 12:28:55;;;;;;;35.97;11.20;;;9.90;92.80;;;;;;4910541;29;20118;-70
2023/02/10 12:32:34;;;;;;;25.25;9.75;;;12.00;91.00;;;;;;4873891;29;20489;-70
2023/02/10 12:35:49;;;;;;;25.35;12.20;;;11.20;85.80;;;;;;4912331;29;20039;-70
2023/02/10 12:38:42;;;;;;;24.33;10.30;;;10.00;90.10;;;;;;4880153;29;20781;-70
2023/02/10 12:42:32;;;;;;;29.80;10.70;;;10.30;90.10;;;;;;4918745;29;20039;-71
2023/02/10 12:45:02;;;;;;;75.63;15.75;;;9.90;88.70;;;;;;4901677;29;20042;-70
2023/02/10 12:48:42;;;;;;;38.35;11.88;;;10.30;90.60;;;;;;4916576;29;20042;-71
2023/02/10 12:52:00;;;;;;;33.10;10.93;;;11.00;89.50;;;;;;4024095;29;25073104;-70
2023/02/10 12:55:33;;;;;;;27.45;10.80;;;10.20;87.10;;;;;;4879493;29;20550;-70
2023/02/10 12:58:39;;;;;;;19.77;7.97;;;8.70;90.40;;;;;;4851663;29;20045;-70
2023/02/10 13:02:13;;;;;;;33.60;8.65;;;10.00;89.80;;;;;;4847260;29;20050;-70
2023/02/10 13:05:05;;;;;;;25.90;10.65;;;9.10;90.60;;;;;;4846182;29;20406;-71
2023/02/10 13:08:38;;;;;;;21.15;10.02;;;9.60;87.90;;;;;;4839310;29;20149;-70
2023/02/10 13:11:53;;;;;;;22.83;10.43;;;10.90;87.40;;;;;;4808502;29;20047;-71
2023/02/10 13:14:47;;;;;;;32.88;12.40;;;11.30;87.70;;;;;;4809385;29;20133;-71
2023/02/10 13:17:16;;;;;;;17.15;9.43;;;12.00;83.40;;;;;;4810594;29;20045;-70
2023/02/10 13:20:57;;;;;;;24.05;9.48;;;10.10;86.30;;;;;;4814382;29;20544;-70
2023/02/10 13:24:42;;;;;;;23.27;10.10;;;8.80;91.20;;;;;;4795461;29;20054;-70
2023/02/10 13:28:34;;;;;;;19.27;8.20;;;9.10;90.70;;;;;;4815264;29;20809;-70
2023/02/10 13:38:12;;;;;;;20.65;9.52;;;9.20;90.40;;;;;;4841053;29;20776;-70
2023/02/10 13:44:33;;;;;;;21.52;9.38;;;10.00;89.60;;;;;;4855420;29;20040;-70
2023/02/10 13:47:43;;;;;;;28.98;9.75;;;8.50;92.00;;;;;;4887034;29;20052;-70
2023/02/10 13:50:54;;;;;;;27.15;9.60;;;8.00;92.20;;;;;;4914987;29;20036;-70
2023/02/10 13:53:35;;;;;;;24.23;9.30;;;8.30;91.60;;;;;;4870057;29;20048;-71
2023/02/10 13:57:03;;;;;;;24.85;8.88;;;7.90;92.20;;;;;;4915349;29;20500;-71
2023/02/10 14:00:13;;;;;;;21.67;9.65;;;8.00;92.50;;;;;;4853334;29;20057;-71
2023/02/10 14:03:16;;;;;;;18.88;8.98;;;7.90;93.00;;;;;;4845328;29;20084;-71